• Join FlightAware (Why Join?)
  • Login
  • US Flag 
11:27AM EDT


 

Airport Tracker/Info


-or-


 

Live Flight TrackerFlight Track Log ✈ N7054S ✈ 02-Jul-2013 ✈ KEYE - KAGC

Flight Track Log - Related Links

Times and Time Zones

All times are in EDT time to prevent confusion due to time zone crossing. See the N7054S flight status page for this flight to view local times or setup timezone preferences in your user account.

Time Position Orientation Groundspeed Altitude Reporting Facility
EDT Latitude Longitude Course Direction KTS MPH feet Rate Location/Type
03:03PM 39.8333 -86.2833 360° North 68 78 1,200  Level Indianapolis TRACON
03:03PM 39.8500 -86.2833 360° North 71 82 1,700 840 Climbing Indianapolis TRACON
03:05PM 39.8667 -86.2833 360° North 79 91 2,800 840 Climbing Indianapolis TRACON
03:06PM 39.9000 -86.2833 360° North 85 98 3,700 840 Climbing Indianapolis TRACON
03:06PM 39.9000 -86.2667 90° East 81 93 4,500 780 Climbing Indianapolis TRACON
03:08PM 39.9167 -86.2500 37° Northeast 79 91 5,300 660 Climbing Indianapolis TRACON
03:09PM 39.9333 -86.2167 57° Northeast 77 89 5,900 360 Climbing Indianapolis TRACON
03:09PM 39.9333 -86.1833 90° East 114 131 6,000  Climbing Indianapolis TRACON
03:10PM 39.9306 -86.1653 101° East 104 120 5,900  Descending Indianapolis Center
03:11PM 39.9336 -86.1164 85° East 122 140 6,000  Climbing Indianapolis Center
03:12PM 39.9375 -86.0689 84° East 129 148 6,000 -60 Level Indianapolis Center
03:13PM 39.9411 -86.0225 84° East 130 150 5,900 -60 Descending Indianapolis Center
03:14PM 39.9453 -85.9742 84° East 131 151 5,900  Level Indianapolis Center
03:15PM 39.9472 -85.9278 87° East 131 151 5,900  Level Indianapolis Center
03:16PM 39.9494 -85.8803 86° East 131 151 5,900 480 Level Indianapolis Center
03:17PM 39.9522 -85.8358 85° East 116 133 6,900 780 Climbing Indianapolis Center
03:18PM 39.9544 -85.8022 85° East 101 116 7,500 540 Climbing Indianapolis Center
03:19PM 39.9581 -85.7711 81° East 94 108 8,100 600 Climbing Indianapolis Center
03:20PM 39.9614 -85.7425 81° East 85 98 8,800 420 Climbing Indianapolis Center
03:21PM 39.9628 -85.7086 87° East 90 104 9,000 60 Climbing Indianapolis Center
03:22PM 39.9636 -85.6625 89° East 110 127 9,000 -60 Level Indianapolis Center
03:23PM 39.9650 -85.6017 88° East 128 147 8,900 -60 Descending Indianapolis Center
03:24PM 39.9667 -85.5539 87° East 134 154 8,900  Level Indianapolis Center
03:25PM 39.9675 -85.5056 89° East 135 155 9,000  Climbing Indianapolis Center
03:26PM 39.9683 -85.4550 89° East 139 160 8,900  Descending Indianapolis Center
03:27PM 39.9744 -85.4056 81° East 135 155 9,000  Climbing Indianapolis Center
03:28PM 39.9778 -85.3600 85° East 131 151 9,000  Level Indianapolis Center
03:30PM 39.9811 -85.2944 86° East 131 151 9,100 -60 Climbing Indianapolis Center
03:31PM 39.9836 -85.2556 85° East 131 151 8,900  Descending Indianapolis Center
03:32PM 39.9864 -85.2083 86° East 132 152 9,100  Climbing Indianapolis Center
03:33PM 39.9903 -85.1614 84° East 131 151 9,000 -60 Descending Indianapolis Center
03:34PM 39.9928 -85.1119 86° East 133 153 9,000  Level Indianapolis Center
03:35PM 39.9944 -85.0636 87° East 134 154 9,100  Climbing Indianapolis Center
03:36PM 39.9975 -85.0156 85° East 133 153 9,000  Descending Indianapolis Center
03:37PM 39.9989 -84.9589 88° East 132 152 9,100  Climbing Indianapolis Center
03:38PM 40.0003 -84.9122 88° East 130 150 9,100 -60 Level Indianapolis Center
03:39PM 40.0006 -84.8664 90° East 131 151 9,000 -60 Descending Indianapolis Center
03:40PM 40.0058 -84.8103 83° East 132 152 9,000  Level Indianapolis Center
03:41PM 40.0044 -84.7617 92° East 133 153 9,000  Level Indianapolis Center
03:42PM 40.0058 -84.7147 88° East 129 148 9,000  Level Indianapolis Center
03:43PM 40.0069 -84.6675 88° East 129 148 9,000  Level Indianapolis Center
03:44PM 40.0061 -84.6183 91° East 132 152 9,000  Level Indianapolis Center
03:45PM 40.0100 -84.5686 84° East 137 158 9,000  Level Indianapolis Center
03:46PM 40.0108 -84.5222 89° East 132 152 9,000  Level Indianapolis Center
03:47PM 40.0075 -84.4750 95° East 125 144 9,100  Climbing Indianapolis Center
03:48PM 39.9978 -84.4294 106° East 130 150 9,000 -60 Descending Indianapolis Center
03:49PM 39.9875 -84.3864 107° East 125 144 9,000  Level Indianapolis Center
03:50PM 39.9778 -84.3408 106° East 123 142 9,000  Level Indianapolis Center
03:51PM 39.9783 -84.2842 89° East 133 153 9,100  Climbing Indianapolis Center
03:52PM 39.9878 -84.2469 72° East 140 161 9,000  Descending Indianapolis Center
03:53PM 39.9972 -84.1967 76° East 140 161 9,200  Climbing Indianapolis Center
03:54PM 40.0047 -84.1461 79° East 141 162 9,000 -120 Descending Indianapolis Center
03:55PM 40.0142 -84.0958 76° East 141 162 9,000  Level Indianapolis Center
03:56PM 40.0239 -84.0428 77° East 139 160 9,000  Level Indianapolis Center
03:57PM 40.0314 -83.9919 79° East 135 155 9,000  Level Indianapolis Center
03:58PM 40.0406 -83.9444 76° East 138 159 9,000  Level Indianapolis Center
03:59PM 40.0472 -83.8992 79° East 140 161 9,000  Level Indianapolis Center
04:00PM 40.0547 -83.8483 79° East 138 159 9,000  Level Indianapolis Center
04:01PM 40.0572 -83.7808 87° East 132 152 9,000  Level Indianapolis Center
04:02PM 40.0581 -83.7531 88° East 135 155 9,000  Level Indianapolis Center
04:03PM 40.0608 -83.7319 80° East 133 153 9,000  Level Indianapolis Center
04:04PM 40.0636 -83.6822 86° East 136 157 9,000  Level Indianapolis Center
04:05PM 40.0672 -83.6331 85° East 135 155 9,000  Level Indianapolis Center
04:06PM 40.0714 -83.5747 85° East 136 157 9,000  Level Indianapolis Center
04:07PM 40.0739 -83.5253 86° East 135 155 9,000  Level Indianapolis Center
04:08PM 40.0781 -83.4756 84° East 136 157 9,000  Level Indianapolis Center
04:09PM 40.0811 -83.4247 85° East 138 159 9,000  Level Indianapolis Center
04:10PM 40.0847 -83.3750 85° East 137 158 9,000  Level Indianapolis Center
04:11PM 40.0875 -83.3236 86° East 140 161 9,000  Level Indianapolis Center
04:12PM 40.0906 -83.2728 85° East 139 160 9,000  Level Indianapolis Center
04:13PM 40.0936 -83.2222 85° East 138 159 9,000  Level Indianapolis Center
04:14PM 40.0961 -83.1725 86° East 137 158 9,000  Level Indianapolis Center
04:15PM 40.1006 -83.1219 83° East 138 159 9,000  Level Indianapolis Center
04:16PM 40.1069 -83.0625 82° East 141 162 9,000  Level Indianapolis Center
04:17PM 40.1119 -83.0117 83° East 140 161 9,000  Level Indianapolis Center
04:18PM 40.1161 -82.9614 84° East 140 161 9,100  Climbing Indianapolis Center
04:19PM 40.1211 -82.9097 83° East 142 163 9,000 -60 Descending Indianapolis Center
04:20PM 40.1267 -82.8589 82° East 141 162 9,000  Level Indianapolis Center
04:21PM 40.1311 -82.8086 83° East 139 160 9,000  Level Indianapolis Center
04:22PM 40.1375 -82.7428 83° East 135 155 9,100  Climbing Indianapolis Center
04:23PM 40.1414 -82.7108 81° East 133 153 9,100 -60 Level Indianapolis Center
04:24PM 40.1467 -82.6431 84° East 135 155 9,000 -60 Descending Indianapolis Center
04:25PM 40.1506 -82.6025 83° East 134 154 9,000  Level Indianapolis Center
04:26PM 40.1553 -82.5547 83° East 134 154 9,000  Level Indianapolis Center
04:27PM 40.1586 -82.5044 85° East 137 158 9,000  Level Indianapolis Center
04:28PM 40.1625 -82.4556 84° East 135 155 9,000  Level Indianapolis Center
04:29PM 40.1658 -82.4053 85° East 138 159 9,000  Level Indianapolis Center
04:30PM 40.1686 -82.3572 86° East 132 152 9,100  Climbing Indianapolis Center
04:31PM 40.1736 -82.2994 84° East 135 155 9,000 -60 Descending Indianapolis Center
04:32PM 40.1758 -82.2481 87° East 141 162 9,000  Level Indianapolis Center
04:33PM 40.1803 -82.1989 83° East 135 155 9,000  Level Indianapolis Center
04:35PM 40.1825 -82.1514 86° East 130 150 9,000  Level Indianapolis Center
04:36PM 40.1850 -82.1011 86° East 136 157 9,000  Level Indianapolis Center
04:37PM 40.1872 -82.0528 87° East 133 153 9,000  Level Indianapolis Center
04:38PM 40.1931 -82.0044 81° East 133 153 9,000  Level Indianapolis Center
04:39PM 40.1967 -81.9436 86° East 140 161 9,000  Level Indianapolis Center
04:40PM 40.2000 -81.8939 85° East 137 158 9,000  Level Indianapolis Center
04:41PM 40.2028 -81.8442 86° East 136 157 9,000  Level Indianapolis Center
04:42PM 40.2053 -81.7919 86° East 141 162 9,000  Level Indianapolis Center
04:43PM 40.2081 -81.7386 86° East 138 159 9,000  Level Indianapolis Center
04:44PM 40.2114 -81.6894 85° East 136 157 9,000 -60 Level Indianapolis Center
04:45PM 40.2142 -81.6400 86° East 135 155 8,900  Descending Indianapolis Center
04:46PM 40.2178 -81.5906 85° East 136 157 9,000  Climbing Indianapolis Center
04:47PM 40.2211 -81.5383 85° East 143 165 9,000 -60 Level Indianapolis Center
04:48PM 40.2253 -81.4892 84° East 137 158 8,900  Descending Indianapolis Center
04:49PM 40.2286 -81.4347 85° East 128 147 9,000 -120 Climbing Indianapolis Center
04:50PM 40.2308 -81.3839 87° East 136 157 8,700 -360 Descending Indianapolis Center
04:51PM 40.2328 -81.3289 87° East 148 170 8,300 -420 Descending Indianapolis Center
04:52PM 40.2350 -81.2744 87° East 150 173 7,900 -420 Descending Indianapolis Center
04:53PM 40.2394 -81.2197 84° East 151 174 7,500 -420 Descending Indianapolis Center